Main page
METAR-TAF:

METAR-TAF

Airports :

João Paulo II Airport

Ponta Delgada, Azores, Portugal

latitude: 37-44N, longitude: 025-42W, elevation: 71 m

Current weather observation

The report was made 27 minutes ago, at 18:00 UTC
Wind 3 kt from the North/Northeast, varying between North/Northwest and East
Temperature 21°C
Humidity 64%
Pressure 1028 hPa
Visibility 10 km or more
Few clouds at a height of 2000 ft

METAR: LPPD 211800Z 03003KT 330V100 9999 FEW020 21/14 Q1028

Time: 18:27 (18:27 UTC)

Forecast

The report was made 1 hour and 27 minutes ago, at 17:00 UTC
Forecast valid from 21 at 18 UTC to 22 at 18 UTC
Wind 5 kt from variable directions
Visibility 10 km or more
Few clouds at a height of 2500 ft
Temporary
from 21 at 18 UTC to 22 at 18 UTC
Scattered clouds at a height of 2000 ft
Broken clouds at a height of 4500 ft
Becoming
from 22 at 12 UTC to 22 at 14 UTC
Wind 10 kt from the Southwest

TAF: LPPD 211700Z 2118/2218 VRB05KT 9999 FEW025 TEMPO 2118/2218 SCT020 BKN045 BECMG 2212/2214 23010KT

Weather observations and forecasts of more than 4000 airports (METAR and TAF reports).

The available stations are represented by yellow and red dots on the map.

Hover mouse over dot to see the name of the station.

Then click to see weather observations and forecasts.

To change the map : click on the green buttons with a black cross to zoom in, on the green button with a dash to zoom out, or on the green arrows for adjacent maps.


METAR-TAF: